Time;durP1;ratioP1;P1;durP2;ratioP2;P2;SDS_P1;SDS_P2;PMS_P1;PMS_P2;Temp;Humidity;BMP_temperature;BMP_pressure;BME280_temperature;BME280_humidity;BME280_pressure;Samples;Min_cycle;Max_cycle;Signal;HPM_P1;HPM_P2
2022/02/22 00:01:42;;;;;;;4.00;1.80;;;4.70;97.70;;;;;;5124595;27;20210;-44
2022/02/22 00:04:08;;;;;;;4.20;2.13;;;4.70;97.70;;;;;;5126281;27;20224;-44
2022/02/22 00:06:34;;;;;;;6.23;2.00;;;4.70;97.50;;;;;;5123858;27;20437;-44
2022/02/22 00:09:00;;;;;;;5.50;1.80;;;4.70;97.40;;;;;;5126067;27;20429;-44
2022/02/22 00:11:26;;;;;;;5.50;2.10;;;4.80;96.70;;;;;;5124785;27;20448;-44
2022/02/22 00:13:53;;;;;;;1.90;1.40;;;4.80;96.40;;;;;;5126543;27;20180;-44
2022/02/22 00:16:19;;;;;;;3.77;1.43;;;4.80;96.30;;;;;;5123575;27;20430;-45
2022/02/22 00:18:44;;;;;;;4.00;1.27;;;4.80;95.70;;;;;;5127076;27;20422;-44
2022/02/22 00:21:12;;;;;;;8.37;1.70;;;4.80;95.20;;;;;;5124014;27;20216;-44
2022/02/22 00:23:38;;;;;;;5.97;1.63;;;4.90;95.00;;;;;;5109240;27;20175;-44
2022/02/22 00:26:04;;;;;;;4.53;2.03;;;4.90;94.80;;;;;;5125229;27;20461;-44
2022/02/22 00:28:30;;;;;;;3.60;1.40;;;4.90;94.70;;;;;;5125413;27;20413;-44
2022/02/22 00:30:55;;;;;;;5.83;1.50;;;5.00;94.70;;;;;;5124542;27;20441;-42
2022/02/22 00:33:21;;;;;;;2.23;1.33;;;4.90;94.70;;;;;;5125514;27;20509;-44
2022/02/22 00:35:47;;;;;;;6.40;1.40;;;4.90;94.30;;;;;;5123418;27;20206;-44
2022/02/22 00:38:13;;;;;;;6.23;1.70;;;4.90;94.20;;;;;;5126533;27;20188;-44
2022/02/22 00:40:38;;;;;;;6.33;2.03;;;4.90;94.20;;;;;;5123594;27;20219;-45
2022/02/22 00:43:05;;;;;;;7.93;1.90;;;4.90;94.30;;;;;;5125163;27;20190;-45
2022/02/22 00:45:30;;;;;;;4.73;1.73;;;4.90;94.50;;;;;;5123148;27;20267;-44
2022/02/22 00:47:56;;;;;;;5.53;2.43;;;4.90;94.40;;;;;;5126692;27;20526;-44
2022/02/22 00:50:22;;;;;;;4.33;1.87;;;4.90;94.00;;;;;;5125951;27;20476;-44
2022/02/22 00:52:47;;;;;;;3.50;1.77;;;4.90;94.10;;;;;;5123671;27;20271;-44
2022/02/22 00:55:13;;;;;;;10.90;2.37;;;4.90;94.00;;;;;;5126278;27;20194;-44
2022/02/22 00:57:41;;;;;;;4.73;1.70;;;4.90;94.10;;;;;;5125208;27;20228;-44
2022/02/22 01:00:08;;;;;;;6.90;2.73;;;4.90;94.20;;;;;;5126066;27;20210;-44
2022/02/22 01:02:34;;;;;;;4.93;2.03;;;4.80;94.30;;;;;;5124087;27;20537;-44
2022/02/22 01:04:59;;;;;;;3.63;1.63;;;4.80;94.30;;;;;;5125007;27;20764;-45
2022/02/22 01:07:25;;;;;;;6.17;1.77;;;4.90;94.30;;;;;;5123644;27;20183;-43
2022/02/22 01:09:50;;;;;;;5.10;2.07;;;4.80;94.20;;;;;;5124780;27;20593;-44
2022/02/22 01:12:17;;;;;;;5.43;1.60;;;4.90;94.20;;;;;;5124514;27;20200;-44
2022/02/22 01:14:44;;;;;;;6.70;2.37;;;5.10;96.00;;;;;;5123777;27;20546;-44
2022/02/22 01:17:10;;;;;;;5.90;1.67;;;5.30;96.70;;;;;;5124277;27;20513;-44
2022/02/22 01:19:35;;;;;;;5.93;1.80;;;5.40;95.00;;;;;;5114507;27;20494;-44
2022/02/22 01:22:01;;;;;;;4.80;1.90;;;5.30;94.20;;;;;;5122277;27;20769;-44
2022/02/22 01:24:27;;;;;;;3.77;1.30;;;5.30;94.10;;;;;;5118600;28;20185;-44
2022/02/22 01:26:53;;;;;;;3.50;1.57;;;5.10;94.30;;;;;;5119324;28;20900;-44
2022/02/22 01:29:19;;;;;;;10.10;2.97;;;4.90;94.60;;;;;;5117709;28;20180;-44
2022/02/22 01:31:45;;;;;;;4.10;1.67;;;4.90;95.00;;;;;;5119542;28;20238;-44
2022/02/22 01:34:10;;;;;;;6.67;2.10;;;4.80;95.10;;;;;;5118407;28;20718;-44
2022/02/22 01:36:36;;;;;;;4.00;2.13;;;4.70;95.30;;;;;;5118813;28;20415;-44
2022/02/22 01:39:03;;;;;;;4.90;2.23;;;4.70;95.40;;;;;;5118096;28;20560;-45
2022/02/22 01:41:29;;;;;;;9.77;2.13;;;4.70;95.30;;;;;;5119498;28;20173;-44
2022/02/22 01:43:55;;;;;;;7.70;1.93;;;4.70;95.50;;;;;;5119332;28;20433;-44
2022/02/22 01:46:21;;;;;;;4.60;3.67;;;4.60;95.40;;;;;;5116980;28;20434;-44
2022/02/22 01:48:47;;;;;;;5.47;1.40;;;4.60;95.60;;;;;;5117818;28;20579;-44
2022/02/22 01:51:12;;;;;;;4.07;1.67;;;4.50;95.70;;;;;;5119182;28;20509;-44
2022/02/22 01:53:38;;;;;;;3.73;1.63;;;4.50;95.70;;;;;;5116183;28;20352;-42
2022/02/22 01:56:07;;;;;;;4.53;1.40;;;4.50;95.90;;;;;;5117301;28;20172;-44
2022/02/22 01:58:34;;;;;;;5.83;1.60;;;4.40;96.20;;;;;;5115812;28;20280;-43
2022/02/22 02:00:59;;;;;;;2.90;1.37;;;4.30;96.50;;;;;;5117735;28;20510;-44
2022/02/22 02:03:26;;;;;;;4.40;1.20;;;4.20;97.00;;;;;;5116835;28;20410;-45
2022/02/22 02:05:52;;;;;;;2.00;1.73;;;4.10;97.60;;;;;;5117990;28;20219;-44
2022/02/22 02:08:18;;;;;;;4.27;1.33;;;4.10;98.00;;;;;;5117895;28;20543;-44
2022/02/22 02:10:44;;;;;;;4.70;2.00;;;3.90;98.30;;;;;;5116958;28;20430;-45
2022/02/22 02:13:10;;;;;;;4.43;1.47;;;3.90;98.60;;;;;;5118747;28;20187;-44
2022/02/22 02:15:36;;;;;;;4.43;1.67;;;3.80;99.00;;;;;;5116970;28;20757;-44
2022/02/22 02:18:01;;;;;;;3.37;1.70;;;3.80;99.30;;;;;;5118665;28;20424;-44
2022/02/22 02:20:27;;;;;;;3.63;1.83;;;3.70;99.50;;;;;;5117635;28;20216;-44
2022/02/22 02:22:52;;;;;;;4.20;2.10;;;3.70;99.60;;;;;;5118719;28;20180;-44
2022/02/22 02:25:18;;;;;;;2.77;1.67;;;3.70;99.80;;;;;;5116716;28;20546;-44
2022/02/22 02:27:44;;;;;;;3.63;1.80;;;3.60;99.90;;;;;;5118620;28;20176;-44
2022/02/22 02:30:11;;;;;;;6.90;2.00;;;3.60;99.90;;;;;;5116907;28;20196;-44
2022/02/22 02:32:37;;;;;;;3.80;2.23;;;3.60;99.90;;;;;;5117609;28;20545;-44
2022/02/22 02:35:04;;;;;;;4.73;2.50;;;3.60;99.90;;;;;;5115417;28;20462;-44
2022/02/22 02:37:30;;;;;;;7.43;2.17;;;3.70;99.80;;;;;;5117885;28;20414;-44
2022/02/22 02:39:56;;;;;;;4.10;2.20;;;3.70;99.70;;;;;;5115817;28;20492;-44
2022/02/22 02:42:21;;;;;;;4.63;2.03;;;3.70;99.60;;;;;;5117426;28;20214;-44
2022/02/22 02:44:48;;;;;;;5.73;2.40;;;3.80;99.50;;;;;;5115276;28;20269;-45
2022/02/22 02:47:15;;;;;;;4.40;1.80;;;3.80;99.40;;;;;;5116200;28;20191;-44
2022/02/22 02:49:41;;;;;;;6.50;2.10;;;3.80;99.20;;;;;;5116211;28;20458;-44
2022/02/22 02:52:08;;;;;;;6.20;1.93;;;3.80;99.10;;;;;;5117548;28;20428;-44
2022/02/22 02:54:34;;;;;;;6.87;2.37;;;3.80;98.90;;;;;;5115577;28;20437;-44
2022/02/22 02:57:00;;;;;;;4.47;2.07;;;3.80;98.90;;;;;;5117350;28;20417;-44
2022/02/22 02:59:25;;;;;;;4.60;2.63;;;3.80;98.80;;;;;;5116447;28;20479;-44
2022/02/22 03:01:51;;;;;;;12.30;2.63;;;3.80;98.70;;;;;;5118068;28;20422;-44
2022/02/22 03:04:17;;;;;;;10.00;2.37;;;3.80;98.70;;;;;;5116637;28;20220;-44
2022/02/22 03:06:43;;;;;;;6.67;3.37;;;3.90;98.50;;;;;;5117251;28;20525;-44
2022/02/22 03:09:09;;;;;;;6.10;2.50;;;3.80;98.40;;;;;;5116472;28;20449;-44
2022/02/22 03:11:35;;;;;;;6.30;2.30;;;3.80;98.40;;;;;;5118129;28;20186;-44
2022/02/22 03:14:01;;;;;;;7.63;2.60;;;3.80;98.40;;;;;;5115717;28;20524;-44
2022/02/22 03:16:27;;;;;;;4.37;1.93;;;3.80;98.20;;;;;;5117826;28;20411;-44
2022/02/22 03:18:53;;;;;;;7.23;2.00;;;3.80;98.30;;;;;;5116686;28;20494;-43
2022/02/22 03:21:19;;;;;;;10.20;2.90;;;3.80;98.20;;;;;;5117866;28;20229;-44
2022/02/22 03:23:44;;;;;;;6.37;2.47;;;3.80;98.40;;;;;;5117233;28;20215;-44
2022/02/22 03:26:10;;;;;;;8.10;2.67;;;3.70;98.40;;;;;;5117914;28;20463;-44
2022/02/22 03:28:36;;;;;;;3.80;2.20;;;3.70;98.40;;;;;;5116213;28;20559;-44
2022/02/22 03:31:03;;;;;;;5.53;2.20;;;3.70;98.40;;;;;;5117802;28;20192;-44
2022/02/22 03:33:29;;;;;;;13.10;3.13;;;3.70;98.40;;;;;;5116476;28;20522;-44
2022/02/22 03:35:55;;;;;;;7.47;2.80;;;3.70;98.40;;;;;;5117652;28;20834;-44
2022/02/22 03:38:21;;;;;;;5.57;1.97;;;3.70;98.40;;;;;;5117433;28;20410;-44
2022/02/22 03:40:46;;;;;;;5.70;3.03;;;3.70;98.40;;;;;;5116062;28;20582;-44
2022/02/22 03:43:12;;;;;;;7.03;2.20;;;3.70;98.40;;;;;;5117573;28;20212;-44
2022/02/22 03:45:38;;;;;;;6.10;2.30;;;3.70;98.40;;;;;;5115628;28;20190;-44
2022/02/22 03:48:04;;;;;;;4.27;2.27;;;3.70;98.50;;;;;;5117393;28;20190;-44
2022/02/22 03:50:30;;;;;;;6.97;2.77;;;3.70;98.30;;;;;;5115975;28;20567;-44
2022/02/22 03:52:55;;;;;;;4.70;2.27;;;3.60;98.30;;;;;;5117614;28;20448;-44
2022/02/22 03:55:22;;;;;;;10.03;2.97;;;3.60;98.50;;;;;;5121633;28;20689;-44
2022/02/22 03:57:48;;;;;;;5.33;2.77;;;3.60;98.50;;;;;;5137042;28;20227;-44
2022/02/22 04:00:19;;;;;;;7.33;2.33;;;3.60;98.50;;;;;;5138649;28;20451;-44
2022/02/22 04:02:45;;;;;;;7.07;2.40;;;3.60;98.50;;;;;;5137227;28;20433;-44
2022/02/22 04:05:11;;;;;;;6.73;2.30;;;3.60;98.50;;;;;;5137163;28;20763;-44
2022/02/22 04:07:37;;;;;;;4.93;2.40;;;3.60;98.50;;;;;;5136233;28;20421;-44
2022/02/22 04:10:05;;;;;;;8.00;2.57;;;3.60;98.30;;;;;;5120193;28;20183;-44
2022/02/22 04:12:31;;;;;;;5.73;2.73;;;3.60;98.20;;;;;;5118192;28;20444;-44
2022/02/22 04:14:56;;;;;;;5.07;2.47;;;3.70;98.20;;;;;;5137946;27;20668;-44
2022/02/22 04:17:22;;;;;;;5.03;2.90;;;3.60;98.30;;;;;;5135568;27;20436;-44
2022/02/22 04:19:49;;;;;;;3.83;2.40;;;3.60;98.40;;;;;;5141278;27;20216;-44
2022/02/22 04:22:18;;;;;;;6.83;3.40;;;3.60;98.50;;;;;;5140919;27;20596;-44
2022/02/22 04:24:44;;;;;;;8.03;2.80;;;3.50;98.60;;;;;;5141433;27;20836;-44
2022/02/22 04:27:10;;;;;;;8.70;3.10;;;3.50;98.70;;;;;;5140445;27;20432;-44
2022/02/22 04:29:36;;;;;;;8.10;2.67;;;3.50;98.70;;;;;;5141455;27;20588;-44
2022/02/22 04:32:03;;;;;;;5.63;2.80;;;3.50;98.80;;;;;;5139896;27;20460;-44
2022/02/22 04:34:28;;;;;;;6.70;2.37;;;3.50;98.80;;;;;;5141519;27;20683;-44
2022/02/22 04:36:54;;;;;;;3.97;2.90;;;3.60;98.70;;;;;;5130598;27;20429;-46
2022/02/22 04:39:20;;;;;;;8.40;3.47;;;3.60;98.60;;;;;;5132261;27;20222;-44
2022/02/22 04:41:45;;;;;;;7.33;3.10;;;3.60;98.60;;;;;;5129957;27;20199;-44
2022/02/22 04:44:11;;;;;;;7.77;3.07;;;3.60;98.50;;;;;;5127008;27;20459;-45
2022/02/22 04:46:37;;;;;;;6.20;3.10;;;3.60;98.50;;;;;;5126508;27;20593;-45
2022/02/22 04:49:08;;;;;;;7.63;4.03;;;3.60;98.50;;;;;;5128868;27;20195;-45
2022/02/22 04:51:34;;;;;;;4.20;2.80;;;3.60;98.60;;;;;;5126050;27;20531;-45
2022/02/22 04:53:59;;;;;;;10.17;3.07;;;3.60;98.60;;;;;;5129203;27;20855;-45
2022/02/22 04:56:25;;;;;;;9.93;3.67;;;3.60;98.60;;;;;;5127209;27;20548;-44
2022/02/22 04:58:51;;;;;;;11.07;4.93;;;3.60;98.60;;;;;;5124350;27;20711;-44
2022/02/22 05:01:16;;;;;;;5.43;3.00;;;3.50;98.50;;;;;;5115732;27;20222;-45
2022/02/22 05:03:42;;;;;;;9.60;3.73;;;3.50;98.60;;;;;;5105111;27;20198;-48
2022/02/22 05:06:08;;;;;;;7.80;3.77;;;3.50;98.60;;;;;;5123390;27;20180;-48
2022/02/22 05:08:36;;;;;;;10.17;3.10;;;3.40;98.60;;;;;;5121741;27;20188;-47
2022/02/22 05:11:01;;;;;;;9.73;3.57;;;3.50;98.60;;;;;;5124171;27;20265;-48
2022/02/22 05:13:27;;;;;;;5.30;2.57;;;3.50;98.50;;;;;;5123224;27;20446;-47
2022/02/22 05:15:52;;;;;;;8.60;3.50;;;3.50;98.40;;;;;;5124216;27;20645;-47
2022/02/22 05:18:18;;;;;;;8.97;3.13;;;3.40;98.30;;;;;;5119604;27;20203;-47
2022/02/22 05:20:54;;;;;;;8.43;3.13;;;3.40;98.40;;;;;;5123237;27;20518;-43
2022/02/22 05:23:27;;;;;;;9.57;2.87;;;3.40;98.30;;;;;;5121348;27;20258;-43
2022/02/22 05:25:54;;;;;;;9.70;3.03;;;3.50;98.30;;;;;;5121456;27;20449;-42
2022/02/22 05:28:22;;;;;;;7.60;3.00;;;3.40;98.10;;;;;;5122041;27;20577;-42
2022/02/22 05:30:49;;;;;;;6.77;3.30;;;3.30;98.30;;;;;;5120558;27;20473;-42
2022/02/22 05:33:15;;;;;;;7.27;3.50;;;3.30;98.30;;;;;;5121693;27;20480;-42
2022/02/22 05:35:46;;;;;;;9.00;3.70;;;3.30;98.20;;;;;;5124955;27;20605;-41
2022/02/22 05:38:12;;;;;;;7.13;2.90;;;3.30;98.10;;;;;;5127923;27;20685;-43
2022/02/22 05:40:38;;;;;;;9.90;3.80;;;3.30;97.90;;;;;;5131785;27;20472;-43
2022/02/22 05:43:03;;;;;;;5.73;2.67;;;3.30;97.70;;;;;;5120851;27;20214;-42
2022/02/22 05:45:29;;;;;;;8.80;3.13;;;3.30;97.50;;;;;;5120399;27;20533;-42
2022/02/22 05:47:55;;;;;;;12.70;2.83;;;3.30;97.60;;;;;;5121103;27;20442;-40
2022/02/22 05:50:21;;;;;;;9.57;3.50;;;3.20;97.50;;;;;;5118604;27;20495;-41
2022/02/22 05:52:46;;;;;;;9.43;2.83;;;3.20;97.50;;;;;;5118446;27;20657;-46
2022/02/22 05:55:12;;;;;;;8.63;2.77;;;3.20;97.30;;;;;;5120019;27;20454;-40
2022/02/22 05:57:38;;;;;;;6.80;2.80;;;3.20;97.30;;;;;;5119353;27;20184;-42
2022/02/22 06:00:08;;;;;;;8.40;3.03;;;3.20;97.20;;;;;;5116745;27;20481;-40
2022/02/22 06:02:33;;;;;;;7.73;3.10;;;3.20;97.30;;;;;;5121140;27;20346;-42
2022/02/22 06:04:59;;;;;;;9.30;3.10;;;3.20;97.30;;;;;;5120540;27;20480;-40
2022/02/22 06:07:25;;;;;;;9.07;3.10;;;3.20;97.40;;;;;;5123441;27;20175;-40
2022/02/22 06:09:51;;;;;;;4.83;2.80;;;3.20;97.50;;;;;;5118304;27;20493;-40
2022/02/22 06:12:16;;;;;;;8.23;3.30;;;3.10;97.70;;;;;;5121578;27;20330;-42
2022/02/22 06:14:42;;;;;;;5.83;2.97;;;3.10;97.80;;;;;;5120740;27;20192;-42
2022/02/22 06:17:07;;;;;;;8.73;4.40;;;3.10;98.00;;;;;;5121167;27;20285;-41
2022/02/22 06:19:33;;;;;;;5.90;3.00;;;3.10;98.10;;;;;;5120639;27;20223;-42
2022/02/22 06:21:59;;;;;;;7.47;3.23;;;3.10;98.10;;;;;;5121337;27;20191;-45
2022/02/22 06:24:24;;;;;;;7.07;3.60;;;3.10;98.10;;;;;;5119047;27;20585;-44
2022/02/22 06:26:50;;;;;;;11.40;3.67;;;3.10;98.10;;;;;;5119502;27;20179;-43
2022/02/22 06:29:16;;;;;;;5.30;2.53;;;3.10;98.10;;;;;;5119828;27;20168;-42
2022/02/22 06:31:42;;;;;;;8.67;3.70;;;3.20;98.10;;;;;;5118115;27;20222;-41
2022/02/22 06:34:07;;;;;;;12.00;3.00;;;3.20;98.30;;;;;;5102552;27;20418;-43
2022/02/22 06:36:34;;;;;;;7.27;3.30;;;3.10;98.10;;;;;;5118779;27;20374;-41
2022/02/22 06:39:00;;;;;;;6.83;3.40;;;3.10;98.10;;;;;;5126985;27;20427;-41
2022/02/22 06:41:26;;;;;;;8.57;3.67;;;3.20;98.10;;;;;;5119771;27;21005;-43
2022/02/22 06:43:51;;;;;;;7.33;3.77;;;3.20;98.10;;;;;;5121265;27;20417;-42
2022/02/22 06:46:17;;;;;;;8.93;4.20;;;3.20;98.20;;;;;;5119793;27;20708;-41
2022/02/22 06:48:43;;;;;;;7.20;3.70;;;3.20;98.10;;;;;;5118585;27;20366;-42
2022/02/22 06:51:08;;;;;;;8.17;4.27;;;3.30;98.30;;;;;;5120481;27;20190;-41
2022/02/22 06:53:34;;;;;;;7.17;3.77;;;3.60;98.10;;;;;;5118161;27;20192;-41
2022/02/22 06:56:00;;;;;;;8.23;3.37;;;3.80;97.70;;;;;;5117677;27;20629;-42
2022/02/22 06:58:26;;;;;;;12.90;3.50;;;4.00;97.10;;;;;;5121066;27;20832;-41
2022/02/22 07:00:52;;;;;;;9.80;3.77;;;4.20;96.60;;;;;;5120915;27;20472;-41
2022/02/22 07:03:18;;;;;;;8.30;3.80;;;4.20;96.40;;;;;;5093872;28;20180;-42
2022/02/22 07:05:44;;;;;;;5.10;3.60;;;4.30;96.40;;;;;;5118669;28;20447;-41
2022/02/22 07:08:10;;;;;;;6.93;3.57;;;4.50;96.00;;;;;;5118457;28;20421;-42
2022/02/22 07:10:35;;;;;;;9.53;3.83;;;4.50;96.20;;;;;;5120073;28;20425;-42
2022/02/22 07:13:02;;;;;;;7.37;3.63;;;4.70;95.80;;;;;;5119522;28;20677;-41
2022/02/22 07:15:29;;;;;;;8.33;3.60;;;5.00;95.40;;;;;;5118065;28;20199;-43
2022/02/22 07:17:59;;;;;;;6.97;3.43;;;5.00;95.00;;;;;;5120704;28;20515;-42
2022/02/22 07:20:26;;;;;;;7.07;2.63;;;5.30;94.90;;;;;;5117742;28;20458;-41
2022/02/22 07:22:55;;;;;;;6.77;2.87;;;5.40;94.00;;;;;;5119916;28;20429;-42
2022/02/22 07:25:21;;;;;;;6.73;3.17;;;5.60;94.30;;;;;;5116240;28;20468;-41
2022/02/22 07:27:47;;;;;;;5.90;3.70;;;5.80;93.50;;;;;;5118684;28;20747;-43
2022/02/22 07:30:14;;;;;;;6.20;3.70;;;5.60;93.20;;;;;;5117759;28;20428;-41
2022/02/22 07:32:40;;;;;;;6.17;2.97;;;5.70;93.30;;;;;;5122262;28;20215;-42
2022/02/22 07:35:07;;;;;;;5.30;3.13;;;6.10;93.20;;;;;;5120314;28;20442;-41
2022/02/22 07:37:33;;;;;;;11.80;3.60;;;6.60;92.40;;;;;;5119554;28;20192;-43
2022/02/22 07:39:59;;;;;;;6.20;3.00;;;7.00;91.00;;;;;;5119213;28;20627;-41
2022/02/22 07:42:25;;;;;;;10.20;3.30;;;7.40;90.50;;;;;;5098104;28;20714;-43
2022/02/22 07:44:51;;;;;;;5.83;2.40;;;7.80;88.50;;;;;;5123014;28;20223;-43
2022/02/22 07:47:17;;;;;;;4.57;2.60;;;8.20;87.90;;;;;;5120641;28;20446;-42
2022/02/22 07:49:44;;;;;;;3.63;2.03;;;8.50;86.10;;;;;;5124835;28;20432;-44
2022/02/22 07:52:09;;;;;;;8.63;3.07;;;8.50;83.80;;;;;;5119179;27;20540;-44
2022/02/22 07:54:35;;;;;;;5.23;2.50;;;8.40;84.60;;;;;;5123548;27;20422;-43
2022/02/22 07:57:01;;;;;;;6.00;2.80;;;8.00;85.80;;;;;;5121207;27;20196;-40
2022/02/22 07:59:27;;;;;;;8.90;2.50;;;8.00;88.70;;;;;;5123777;27;20223;-41
2022/02/22 08:01:53;;;;;;;6.03;3.27;;;8.60;90.70;;;;;;5122441;27;20780;-42
2022/02/22 08:04:18;;;;;;;8.30;2.60;;;9.10;87.40;;;;;;5120033;27;20180;-44
2022/02/22 08:06:44;;;;;;;7.07;2.30;;;9.40;85.40;;;;;;5124143;27;20532;-41
2022/02/22 08:09:10;;;;;;;6.70;2.23;;;9.70;83.10;;;;;;5121680;27;20458;-42
2022/02/22 08:11:35;;;;;;;5.70;1.93;;;9.90;80.90;;;;;;5124937;27;20792;-41
2022/02/22 08:14:02;;;;;;;5.30;2.50;;;10.90;78.50;;;;;;5124500;27;20249;-43
2022/02/22 08:16:28;;;;;;;6.50;3.27;;;11.90;76.20;;;;;;5126892;27;20187;-43
2022/02/22 08:18:57;;;;;;;7.83;2.67;;;12.40;71.30;;;;;;5104043;28;20485;-42
2022/02/22 08:21:23;;;;;;;7.33;1.87;;;13.20;67.60;;;;;;5126162;27;20502;-42
2022/02/22 08:23:49;;;;;;;6.00;1.83;;;13.40;63.70;;;;;;5123995;27;20600;-42
2022/02/22 08:26:18;;;;;;;4.60;2.27;;;13.60;63.00;;;;;;5128244;27;20794;-42
2022/02/22 08:28:44;;;;;;;6.43;2.30;;;14.10;60.40;;;;;;5119156;27;20437;-43
2022/02/22 08:31:11;;;;;;;5.73;2.13;;;14.50;59.20;;;;;;5124431;27;20426;-44
2022/02/22 08:33:36;;;;;;;6.57;2.10;;;14.40;57.40;;;;;;5120601;27;20252;-43
2022/02/22 08:36:03;;;;;;;7.37;2.57;;;14.20;57.80;;;;;;5119313;27;20422;-43
2022/02/22 08:38:28;;;;;;;7.17;2.77;;;13.20;57.30;;;;;;5120527;27;20198;-42
2022/02/22 08:40:54;;;;;;;8.60;2.97;;;11.50;59.60;;;;;;5122936;27;20985;-43
2022/02/22 08:43:20;;;;;;;7.27;2.63;;;10.20;63.30;;;;;;5106458;27;20235;-42
2022/02/22 08:45:45;;;;;;;4.23;2.33;;;9.40;69.50;;;;;;5125318;27;20180;-42
2022/02/22 08:48:12;;;;;;;4.40;2.80;;;8.50;73.20;;;;;;5133393;27;20187;-43
2022/02/22 08:50:38;;;;;;;4.90;2.73;;;8.00;77.40;;;;;;5118318;27;20176;-43
2022/02/22 08:53:05;;;;;;;5.83;2.63;;;7.70;79.20;;;;;;5125638;27;20429;-42
2022/02/22 08:55:30;;;;;;;4.73;2.30;;;7.20;83.00;;;;;;5125151;27;20460;-44
2022/02/22 08:57:58;;;;;;;8.20;3.33;;;7.00;85.50;;;;;;5121428;27;20441;-44
2022/02/22 09:00:24;;;;;;;5.10;2.63;;;6.80;87.10;;;;;;5122818;27;20476;-41
2022/02/22 09:02:57;;;;;;;8.47;2.60;;;6.60;88.50;;;;;;5121409;27;20434;-41
2022/02/22 09:05:27;;;;;;;5.80;1.80;;;6.70;89.10;;;;;;5120474;27;20426;-42
2022/02/22 09:07:53;;;;;;;7.90;2.10;;;6.60;89.80;;;;;;5118605;27;20550;-40
2022/02/22 09:10:20;;;;;;;11.20;2.77;;;6.60;90.10;;;;;;5102767;27;20436;-44
2022/02/22 09:12:46;;;;;;;8.30;2.33;;;6.70;90.40;;;;;;5123261;27;20724;-41
2022/02/22 09:15:13;;;;;;;4.37;1.80;;;6.80;90.10;;;;;;5122499;27;20426;-42
2022/02/22 09:17:39;;;;;;;9.20;2.33;;;6.80;90.10;;;;;;5120603;27;20457;-42
2022/02/22 09:20:08;;;;;;;5.40;2.33;;;6.80;90.20;;;;;;5122117;27;20497;-41
2022/02/22 09:22:37;;;;;;;4.60;2.10;;;6.80;90.10;;;;;;5121825;27;20451;-42
2022/02/22 09:25:04;;;;;;;6.57;2.10;;;6.90;90.20;;;;;;5126136;27;20447;-43
2022/02/22 09:27:30;;;;;;;7.23;2.53;;;6.70;90.00;;;;;;5122957;27;20429;-41
2022/02/22 09:29:56;;;;;;;11.33;2.93;;;6.90;90.30;;;;;;5126230;27;20425;-44
2022/02/22 09:32:23;;;;;;;10.70;2.37;;;7.00;90.20;;;;;;5126300;27;20719;-43
2022/02/22 09:34:48;;;;;;;10.43;2.33;;;7.10;89.30;;;;;;5121223;27;20196;-43
2022/02/22 09:37:14;;;;;;;4.47;2.20;;;7.00;89.50;;;;;;5125700;27;20485;-41
2022/02/22 09:39:40;;;;;;;5.40;2.10;;;7.00;89.50;;;;;;5123398;27;20629;-42
2022/02/22 09:42:07;;;;;;;6.47;2.67;;;7.20;89.70;;;;;;5125559;27;20581;-44
2022/02/22 09:44:35;;;;;;;6.63;2.17;;;7.30;88.40;;;;;;5105227;27;20241;-43
2022/02/22 09:47:01;;;;;;;6.27;2.10;;;7.10;87.80;;;;;;5121827;27;20524;-42
2022/02/22 09:49:27;;;;;;;6.10;2.13;;;7.00;87.40;;;;;;5121240;27;20426;-41
2022/02/22 09:51:55;;;;;;;7.30;2.40;;;6.90;87.90;;;;;;5120886;27;20437;-42
2022/02/22 09:54:22;;;;;;;3.67;2.10;;;7.00;88.50;;;;;;5122874;27;20463;-42
2022/02/22 09:56:48;;;;;;;9.13;2.47;;;7.10;88.80;;;;;;5121435;27;20430;-43
2022/02/22 09:59:14;;;;;;;7.00;2.20;;;7.00;88.30;;;;;;5122655;27;20421;-42
2022/02/22 10:01:45;;;;;;;6.30;2.40;;;7.10;88.80;;;;;;5122329;27;20442;-42
2022/02/22 10:04:11;;;;;;;8.37;3.00;;;7.20;88.70;;;;;;5123521;27;20421;-43
2022/02/22 10:06:38;;;;;;;7.33;2.40;;;7.20;89.20;;;;;;5122603;27;20936;-43
2022/02/22 10:09:05;;;;;;;6.63;2.90;;;7.40;89.30;;;;;;5126756;27;20240;-46
2022/02/22 10:11:51;;;;;;;13.43;3.20;;;7.50;88.30;;;;;;5121635;27;20499;-44
2022/02/22 10:14:28;;;;;;;8.13;2.90;;;7.50;88.30;;;;;;5124238;27;20424;-42
2022/02/22 10:16:55;;;;;;;9.23;2.80;;;7.60;88.40;;;;;;5121332;27;20448;-43
2022/02/22 10:19:24;;;;;;;9.77;2.33;;;7.70;88.60;;;;;;5104166;27;20725;-42
2022/02/22 10:21:54;;;;;;;4.50;2.47;;;7.80;88.50;;;;;;5119244;27;20797;-43
2022/02/22 10:24:22;;;;;;;5.83;2.47;;;8.00;87.60;;;;;;5121646;27;20418;-42
2022/02/22 10:26:48;;;;;;;7.63;2.77;;;8.00;87.60;;;;;;5122008;27;20438;-42
2022/02/22 10:29:19;;;;;;;11.20;3.00;;;8.30;87.60;;;;;;5122102;27;20491;-44
2022/02/22 10:31:45;;;;;;;6.97;2.20;;;8.60;86.40;;;;;;5110782;27;20482;-42
2022/02/22 10:34:12;;;;;;;7.40;2.60;;;8.90;85.30;;;;;;5123372;27;20421;-42
2022/02/22 10:36:40;;;;;;;4.63;2.30;;;9.60;83.10;;;;;;5117921;27;20430;-44
2022/02/22 10:39:07;;;;;;;6.53;2.63;;;10.00;79.60;;;;;;5124073;27;20424;-43
2022/02/22 10:41:41;;;;;;;6.07;3.07;;;9.90;79.60;;;;;;5116996;27;20480;-43
2022/02/22 10:44:09;;;;;;;4.97;2.40;;;10.20;78.40;;;;;;5119515;27;20425;-43
2022/02/22 10:46:37;;;;;;;7.43;2.50;;;10.60;76.50;;;;;;5121601;27;20520;-43
2022/02/22 10:49:09;;;;;;;4.03;2.20;;;10.30;75.90;;;;;;5117994;27;20435;-45
2022/02/22 10:51:44;;;;;;;5.83;2.17;;;9.80;78.60;;;;;;5119826;27;20528;-43
2022/02/22 10:54:26;;;;;;;7.70;3.03;;;9.30;80.30;;;;;;5121551;27;20423;-43
2022/02/22 10:56:53;;;;;;;9.30;3.10;;;8.90;81.50;;;;;;5123755;27;20448;-43
2022/02/22 10:59:21;;;;;;;7.70;2.77;;;8.70;83.10;;;;;;5113426;27;20914;-43
2022/02/22 11:01:48;;;;;;;5.50;2.20;;;8.40;83.40;;;;;;5121207;27;20539;-44
2022/02/22 11:04:14;;;;;;;8.37;2.97;;;8.30;84.40;;;;;;5124527;27;20436;-44
2022/02/22 11:06:40;;;;;;;7.60;2.60;;;8.20;85.10;;;;;;5120003;28;20489;-43
2022/02/22 11:09:06;;;;;;;6.87;2.57;;;8.10;86.00;;;;;;5119860;28;20418;-42
2022/02/22 11:11:41;;;;;;;7.83;2.60;;;8.10;86.00;;;;;;5119986;28;20611;-43
2022/02/22 11:14:17;;;;;;;4.90;2.50;;;8.20;86.40;;;;;;5120681;28;20425;-44
2022/02/22 11:16:43;;;;;;;5.40;2.60;;;8.30;86.80;;;;;;5122953;28;20420;-43
2022/02/22 11:19:19;;;;;;;5.10;2.30;;;8.10;85.70;;;;;;5122084;27;20418;-43
2022/02/22 11:21:47;;;;;;;9.73;3.67;;;8.20;86.20;;;;;;5120537;28;20888;-45
2022/02/22 11:24:15;;;;;;;7.27;3.33;;;8.10;86.70;;;;;;5121339;28;20527;-42
2022/02/22 11:26:59;;;;;;;4.90;3.00;;;8.00;87.20;;;;;;5124885;27;20555;-44
2022/02/22 11:29:28;;;;;;;6.50;2.60;;;7.90;87.00;;;;;;5123445;27;20422;-42
2022/02/22 11:32:05;;;;;;;5.93;2.73;;;8.00;87.50;;;;;;5128804;27;20556;-44
2022/02/22 11:34:37;;;;;;;16.20;3.10;;;8.00;88.70;;;;;;5133400;27;20471;-45
2022/02/22 11:37:05;;;;;;;9.30;3.13;;;7.90;87.90;;;;;;5123486;27;20413;-43
2022/02/22 11:39:46;;;;;;;6.13;3.43;;;7.90;88.40;;;;;;5125977;27;20536;-44
2022/02/22 11:42:28;;;;;;;6.97;2.67;;;7.90;88.70;;;;;;5127181;27;20881;-41
2022/02/22 11:45:26;;;;;;;9.10;3.50;;;7.80;90.00;;;;;;5123174;27;20428;-42
2022/02/22 11:48:17;;;;;;;10.93;2.80;;;7.80;89.50;;;;;;5118651;27;20729;-42
2022/02/22 11:50:44;;;;;;;5.83;2.57;;;7.80;90.20;;;;;;5122265;27;20428;-41
2022/02/22 11:53:13;;;;;;;10.10;3.00;;;7.90;90.20;;;;;;5127775;27;20955;-43
2022/02/22 11:55:39;;;;;;;7.60;2.80;;;8.10;90.30;;;;;;5123753;27;20552;-43
2022/02/22 11:58:14;;;;;;;8.30;3.00;;;8.10;90.00;;;;;;5125562;27;20494;-42
2022/02/22 12:00:40;;;;;;;9.73;3.10;;;8.20;90.10;;;;;;5122257;27;20639;-45
2022/02/22 12:03:10;;;;;;;7.13;2.80;;;8.40;90.20;;;;;;5126812;27;20426;-44
2022/02/22 12:05:40;;;;;;;8.03;3.00;;;8.80;89.20;;;;;;5128405;27;20445;-42
2022/02/22 12:08:14;;;;;;;9.93;3.17;;;9.40;87.90;;;;;;5127209;27;20418;-43
2022/02/22 12:10:49;;;;;;;9.40;2.70;;;10.40;82.70;;;;;;5122425;27;20869;-43
2022/02/22 12:13:18;;;;;;;8.20;3.67;;;11.00;80.20;;;;;;5131409;27;20441;-43
2022/02/22 12:15:45;;;;;;;6.83;2.97;;;11.30;78.70;;;;;;5121008;27;20451;-46
2022/02/22 12:18:12;;;;;;;11.00;5.00;;;10.90;78.00;;;;;;5125094;27;20555;-44
2022/02/22 12:20:38;;;;;;;6.93;3.60;;;10.20;80.00;;;;;;5124334;27;20475;-45
2022/02/22 12:23:03;;;;;;;7.30;3.53;;;9.60;82.90;;;;;;5137449;27;20413;-45
2022/02/22 12:25:29;;;;;;;14.83;5.47;;;9.30;84.00;;;;;;5137085;27;20445;-43
2022/02/22 12:28:04;;;;;;;13.17;3.30;;;9.00;84.60;;;;;;5138766;27;20183;-43
2022/02/22 12:30:35;;;;;;;11.17;3.53;;;9.00;85.50;;;;;;5138739;27;20183;-47
2022/02/22 12:33:02;;;;;;;12.67;3.50;;;9.10;84.40;;;;;;5137588;27;20498;-44
2022/02/22 12:35:36;;;;;;;5.47;3.17;;;9.20;84.30;;;;;;5136394;27;20429;-44
2022/02/22 12:38:11;;;;;;;10.10;2.73;;;9.40;82.70;;;;;;5137005;27;20709;-44
2022/02/22 12:40:37;;;;;;;10.07;3.00;;;9.60;80.70;;;;;;5134801;27;20475;-46
2022/02/22 12:43:09;;;;;;;8.80;3.37;;;9.70;80.40;;;;;;5136930;27;20409;-45
2022/02/22 12:45:43;;;;;;;9.67;3.30;;;9.70;80.30;;;;;;5136744;27;20332;-43
2022/02/22 12:48:10;;;;;;;10.30;3.50;;;9.70;79.70;;;;;;5138720;27;20752;-44
2022/02/22 12:50:36;;;;;;;8.73;3.47;;;9.80;79.60;;;;;;5134067;27;20413;-42
2022/02/22 12:53:03;;;;;;;8.57;2.80;;;9.60;79.50;;;;;;5135543;27;20474;-43
2022/02/22 12:55:29;;;;;;;8.30;3.30;;;9.80;79.90;;;;;;5135928;27;20446;-43